sensor_id;sensor_type;location;lat;lon;timestamp;temperature;humidity
22716;DHT22;11525;51.152;4.456;2023-11-21T00:00:35;9.50;99.90
22716;DHT22;11525;51.152;4.456;2023-11-21T00:03:01;9.40;99.90
22716;DHT22;11525;51.152;4.456;2023-11-21T00:05:26;9.30;99.90
22716;DHT22;11525;51.152;4.456;2023-11-21T00:07:52;9.30;99.90
22716;DHT22;11525;51.152;4.456;2023-11-21T00:10:18;9.30;99.90
22716;DHT22;11525;51.152;4.456;2023-11-21T00:12:44;9.20;99.90
22716;DHT22;11525;51.152;4.456;2023-11-21T00:15:10;9.10;99.90
22716;DHT22;11525;51.152;4.456;2023-11-21T00:17:39;9.10;99.90
22716;DHT22;11525;51.152;4.456;2023-11-21T00:20:06;9.00;99.90
22716;DHT22;11525;51.152;4.456;2023-11-21T00:22:35;9.00;99.90
22716;DHT22;11525;51.152;4.456;2023-11-21T00:25:02;9.00;99.90
22716;DHT22;11525;51.152;4.456;2023-11-21T00:27:30;9.10;99.90
22716;DHT22;11525;51.152;4.456;2023-11-21T00:29:56;9.10;99.90
22716;DHT22;11525;51.152;4.456;2023-11-21T00:32:21;9.20;99.90
22716;DHT22;11525;51.152;4.456;2023-11-21T00:34:48;9.30;99.90
22716;DHT22;11525;51.152;4.456;2023-11-21T00:37:14;9.30;99.90
22716;DHT22;11525;51.152;4.456;2023-11-21T00:39:40;9.40;99.90
22716;DHT22;11525;51.152;4.456;2023-11-21T00:42:06;9.50;99.90
22716;DHT22;11525;51.152;4.456;2023-11-21T00:44:32;9.50;99.90
22716;DHT22;11525;51.152;4.456;2023-11-21T00:46:59;9.50;99.90
22716;DHT22;11525;51.152;4.456;2023-11-21T00:49:25;9.50;99.90
22716;DHT22;11525;51.152;4.456;2023-11-21T00:51:51;9.50;99.90
22716;DHT22;11525;51.152;4.456;2023-11-21T00:54:17;9.50;99.90
22716;DHT22;11525;51.152;4.456;2023-11-21T00:56:43;9.60;99.90
22716;DHT22;11525;51.152;4.456;2023-11-21T00:59:09;9.60;99.90
22716;DHT22;11525;51.152;4.456;2023-11-21T01:01:36;9.70;99.90
22716;DHT22;11525;51.152;4.456;2023-11-21T01:04:03;9.70;99.90
22716;DHT22;11525;51.152;4.456;2023-11-21T01:06:29;9.70;99.90
22716;DHT22;11525;51.152;4.456;2023-11-21T01:08:55;9.70;99.90
22716;DHT22;11525;51.152;4.456;2023-11-21T01:11:21;9.70;99.90
22716;DHT22;11525;51.152;4.456;2023-11-21T01:13:47;9.70;99.90
22716;DHT22;11525;51.152;4.456;2023-11-21T01:16:13;9.70;99.90
22716;DHT22;11525;51.152;4.456;2023-11-21T01:18:42;9.70;99.90
22716;DHT22;11525;51.152;4.456;2023-11-21T01:21:08;9.60;99.90
22716;DHT22;11525;51.152;4.456;2023-11-21T01:23:34;9.60;99.90
22716;DHT22;11525;51.152;4.456;2023-11-21T01:26:00;9.50;99.90
22716;DHT22;11525;51.152;4.456;2023-11-21T01:28:26;9.40;99.90
22716;DHT22;11525;51.152;4.456;2023-11-21T01:30:52;9.40;99.90
22716;DHT22;11525;51.152;4.456;2023-11-21T01:33:22;9.40;99.90
22716;DHT22;11525;51.152;4.456;2023-11-21T01:35:50;9.50;99.90
22716;DHT22;11525;51.152;4.456;2023-11-21T01:38:16;9.50;99.90
22716;DHT22;11525;51.152;4.456;2023-11-21T01:40:43;9.60;99.90
22716;DHT22;11525;51.152;4.456;2023-11-21T01:43:09;9.60;99.90
22716;DHT22;11525;51.152;4.456;2023-11-21T01:45:35;9.60;99.90
22716;DHT22;11525;51.152;4.456;2023-11-21T01:48:01;9.70;99.90
22716;DHT22;11525;51.152;4.456;2023-11-21T01:50:28;9.80;99.90
22716;DHT22;11525;51.152;4.456;2023-11-21T01:52:54;9.80;99.90
22716;DHT22;11525;51.152;4.456;2023-11-21T01:55:21;9.90;99.90
22716;DHT22;11525;51.152;4.456;2023-11-21T01:57:47;9.90;99.90
22716;DHT22;11525;51.152;4.456;2023-11-21T02:00:14;10.00;99.90
22716;DHT22;11525;51.152;4.456;2023-11-21T02:02:45;9.90;99.90
22716;DHT22;11525;51.152;4.456;2023-11-21T02:05:13;10.00;99.90
22716;DHT22;11525;51.152;4.456;2023-11-21T02:07:40;9.90;99.90
22716;DHT22;11525;51.152;4.456;2023-11-21T02:10:08;9.90;99.90
22716;DHT22;11525;51.152;4.456;2023-11-21T02:12:35;10.00;99.90
22716;DHT22;11525;51.152;4.456;2023-11-21T02:15:07;10.00;99.90
22716;DHT22;11525;51.152;4.456;2023-11-21T02:17:41;10.00;99.90
22716;DHT22;11525;51.152;4.456;2023-11-21T02:20:10;10.10;99.90
22716;DHT22;11525;51.152;4.456;2023-11-21T02:22:41;10.10;99.90
22716;DHT22;11525;51.152;4.456;2023-11-21T02:25:08;10.10;99.90
22716;DHT22;11525;51.152;4.456;2023-11-21T02:27:34;10.10;99.90
22716;DHT22;11525;51.152;4.456;2023-11-21T02:30:00;10.10;99.90
22716;DHT22;11525;51.152;4.456;2023-11-21T02:32:28;10.10;99.90
22716;DHT22;11525;51.152;4.456;2023-11-21T02:34:54;10.10;99.90
22716;DHT22;11525;51.152;4.456;2023-11-21T02:37:21;10.10;99.90
22716;DHT22;11525;51.152;4.456;2023-11-21T02:39:47;10.10;99.90
22716;DHT22;11525;51.152;4.456;2023-11-21T02:42:13;10.10;99.90
22716;DHT22;11525;51.152;4.456;2023-11-21T02:44:38;10.10;99.90
22716;DHT22;11525;51.152;4.456;2023-11-21T02:47:04;10.10;99.90
22716;DHT22;11525;51.152;4.456;2023-11-21T02:49:30;10.00;99.90
22716;DHT22;11525;51.152;4.456;2023-11-21T02:51:56;10.00;99.90
22716;DHT22;11525;51.152;4.456;2023-11-21T02:54:22;10.00;99.90
22716;DHT22;11525;51.152;4.456;2023-11-21T02:56:48;10.10;99.90
22716;DHT22;11525;51.152;4.456;2023-11-21T02:59:15;10.10;99.90
22716;DHT22;11525;51.152;4.456;2023-11-21T03:01:41;10.10;99.90
22716;DHT22;11525;51.152;4.456;2023-11-21T03:04:07;10.00;99.90
22716;DHT22;11525;51.152;4.456;2023-11-21T03:06:33;10.10;99.90
22716;DHT22;11525;51.152;4.456;2023-11-21T03:08:59;10.10;99.90
22716;DHT22;11525;51.152;4.456;2023-11-21T03:11:25;10.10;99.90
22716;DHT22;11525;51.152;4.456;2023-11-21T03:13:51;10.10;99.90
22716;DHT22;11525;51.152;4.456;2023-11-21T03:16:18;10.20;99.90
22716;DHT22;11525;51.152;4.456;2023-11-21T03:18:44;10.20;99.90
22716;DHT22;11525;51.152;4.456;2023-11-21T03:21:11;10.10;99.90
22716;DHT22;11525;51.152;4.456;2023-11-21T03:23:37;10.10;99.90
22716;DHT22;11525;51.152;4.456;2023-11-21T03:26:04;10.20;99.90
22716;DHT22;11525;51.152;4.456;2023-11-21T03:28:34;10.20;99.90
22716;DHT22;11525;51.152;4.456;2023-11-21T03:31:00;10.30;99.90
22716;DHT22;11525;51.152;4.456;2023-11-21T03:33:25;10.30;99.90
22716;DHT22;11525;51.152;4.456;2023-11-21T03:35:51;10.30;99.90
22716;DHT22;11525;51.152;4.456;2023-11-21T03:38:19;10.30;99.90
22716;DHT22;11525;51.152;4.456;2023-11-21T03:40:45;10.30;99.90
22716;DHT22;11525;51.152;4.456;2023-11-21T03:43:13;10.30;99.90
22716;DHT22;11525;51.152;4.456;2023-11-21T03:45:39;10.30;99.90
22716;DHT22;11525;51.152;4.456;2023-11-21T03:48:07;10.30;99.90
22716;DHT22;11525;51.152;4.456;2023-11-21T03:50:32;10.30;99.90
22716;DHT22;11525;51.152;4.456;2023-11-21T03:52:58;10.30;99.90
22716;DHT22;11525;51.152;4.456;2023-11-21T03:55:24;10.30;99.90
22716;DHT22;11525;51.152;4.456;2023-11-21T03:57:51;10.30;99.90
22716;DHT22;11525;51.152;4.456;2023-11-21T04:00:17;10.30;99.90
22716;DHT22;11525;51.152;4.456;2023-11-21T04:02:43;10.30;99.90
22716;DHT22;11525;51.152;4.456;2023-11-21T04:05:09;10.30;99.90
22716;DHT22;11525;51.152;4.456;2023-11-21T04:07:35;10.30;99.90
22716;DHT22;11525;51.152;4.456;2023-11-21T04:10:01;10.30;99.90
22716;DHT22;11525;51.152;4.456;2023-11-21T04:12:26;10.30;99.90
22716;DHT22;11525;51.152;4.456;2023-11-21T04:14:52;10.30;99.90
22716;DHT22;11525;51.152;4.456;2023-11-21T04:17:18;10.40;99.90
22716;DHT22;11525;51.152;4.456;2023-11-21T04:19:45;10.40;99.90
22716;DHT22;11525;51.152;4.456;2023-11-21T04:22:11;10.30;99.90
22716;DHT22;11525;51.152;4.456;2023-11-21T04:24:37;10.30;99.90
22716;DHT22;11525;51.152;4.456;2023-11-21T04:27:03;10.30;99.90
22716;DHT22;11525;51.152;4.456;2023-11-21T04:29:29;10.40;99.90
22716;DHT22;11525;51.152;4.456;2023-11-21T04:31:55;10.40;99.90
22716;DHT22;11525;51.152;4.456;2023-11-21T04:34:21;10.50;99.90
22716;DHT22;11525;51.152;4.456;2023-11-21T04:36:46;10.50;99.90
22716;DHT22;11525;51.152;4.456;2023-11-21T04:39:12;10.50;99.90
22716;DHT22;11525;51.152;4.456;2023-11-21T04:41:38;10.50;99.90
22716;DHT22;11525;51.152;4.456;2023-11-21T04:44:06;10.50;99.90
22716;DHT22;11525;51.152;4.456;2023-11-21T04:46:32;10.50;99.90
22716;DHT22;11525;51.152;4.456;2023-11-21T04:48:58;10.50;99.90
22716;DHT22;11525;51.152;4.456;2023-11-21T04:51:24;10.50;99.90
22716;DHT22;11525;51.152;4.456;2023-11-21T04:53:50;10.50;99.90
22716;DHT22;11525;51.152;4.456;2023-11-21T04:56:16;10.50;99.90
22716;DHT22;11525;51.152;4.456;2023-11-21T04:58:42;10.60;99.90
22716;DHT22;11525;51.152;4.456;2023-11-21T05:01:08;10.50;99.90
22716;DHT22;11525;51.152;4.456;2023-11-21T05:03:34;10.50;99.90
22716;DHT22;11525;51.152;4.456;2023-11-21T05:06:00;10.50;99.90
22716;DHT22;11525;51.152;4.456;2023-11-21T05:08:26;10.40;99.90
22716;DHT22;11525;51.152;4.456;2023-11-21T05:10:52;10.50;99.90
22716;DHT22;11525;51.152;4.456;2023-11-21T05:13:20;10.50;99.90
22716;DHT22;11525;51.152;4.456;2023-11-21T05:15:46;10.50;99.90
22716;DHT22;11525;51.152;4.456;2023-11-21T05:18:11;10.50;99.90
22716;DHT22;11525;51.152;4.456;2023-11-21T05:20:39;10.50;99.90
22716;DHT22;11525;51.152;4.456;2023-11-21T05:23:07;10.50;99.90
22716;DHT22;11525;51.152;4.456;2023-11-21T05:25:33;10.50;99.90
22716;DHT22;11525;51.152;4.456;2023-11-21T05:27:59;10.50;99.90
22716;DHT22;11525;51.152;4.456;2023-11-21T05:30:27;10.40;99.90
22716;DHT22;11525;51.152;4.456;2023-11-21T05:32:53;10.40;99.90
22716;DHT22;11525;51.152;4.456;2023-11-21T05:35:19;10.50;99.90
22716;DHT22;11525;51.152;4.456;2023-11-21T05:37:45;10.50;99.90
22716;DHT22;11525;51.152;4.456;2023-11-21T05:40:11;10.50;99.90
22716;DHT22;11525;51.152;4.456;2023-11-21T05:42:39;10.50;99.90
22716;DHT22;11525;51.152;4.456;2023-11-21T05:45:06;10.60;99.90
22716;DHT22;11525;51.152;4.456;2023-11-21T05:47:37;10.60;99.90
22716;DHT22;11525;51.152;4.456;2023-11-21T05:50:04;10.50;99.90
22716;DHT22;11525;51.152;4.456;2023-11-21T05:52:31;10.50;99.90
22716;DHT22;11525;51.152;4.456;2023-11-21T05:54:58;10.50;99.90
22716;DHT22;11525;51.152;4.456;2023-11-21T05:57:24;10.50;99.90
22716;DHT22;11525;51.152;4.456;2023-11-21T05:59:49;10.60;99.90
22716;DHT22;11525;51.152;4.456;2023-11-21T06:02:16;10.60;99.90
22716;DHT22;11525;51.152;4.456;2023-11-21T06:04:42;10.60;99.90
22716;DHT22;11525;51.152;4.456;2023-11-21T06:07:08;10.60;99.90
22716;DHT22;11525;51.152;4.456;2023-11-21T06:09:34;10.70;99.90
22716;DHT22;11525;51.152;4.456;2023-11-21T06:12:00;10.70;99.90
22716;DHT22;11525;51.152;4.456;2023-11-21T06:14:26;10.70;99.90
22716;DHT22;11525;51.152;4.456;2023-11-21T06:16:52;10.70;99.90
22716;DHT22;11525;51.152;4.456;2023-11-21T06:19:18;10.90;99.90
22716;DHT22;11525;51.152;4.456;2023-11-21T06:21:46;10.90;99.90
22716;DHT22;11525;51.152;4.456;2023-11-21T06:24:12;10.90;99.90
22716;DHT22;11525;51.152;4.456;2023-11-21T06:26:40;10.90;99.90
22716;DHT22;11525;51.152;4.456;2023-11-21T06:29:06;10.90;99.90
22716;DHT22;11525;51.152;4.456;2023-11-21T06:31:32;10.90;99.90
22716;DHT22;11525;51.152;4.456;2023-11-21T06:33:58;10.90;99.90
22716;DHT22;11525;51.152;4.456;2023-11-21T06:36:25;10.90;99.90
22716;DHT22;11525;51.152;4.456;2023-11-21T06:38:52;10.80;99.90
22716;DHT22;11525;51.152;4.456;2023-11-21T06:41:18;10.80;99.90
22716;DHT22;11525;51.152;4.456;2023-11-21T06:43:43;10.80;99.90
22716;DHT22;11525;51.152;4.456;2023-11-21T06:46:12;10.80;99.90
22716;DHT22;11525;51.152;4.456;2023-11-21T06:48:42;10.80;99.90
22716;DHT22;11525;51.152;4.456;2023-11-21T06:51:08;10.70;99.90
22716;DHT22;11525;51.152;4.456;2023-11-21T06:53:33;10.70;99.90
22716;DHT22;11525;51.152;4.456;2023-11-21T06:55:59;10.70;99.90
22716;DHT22;11525;51.152;4.456;2023-11-21T06:58:25;10.80;99.90
22716;DHT22;11525;51.152;4.456;2023-11-21T07:00:51;10.70;99.90
22716;DHT22;11525;51.152;4.456;2023-11-21T07:03:18;10.90;99.90
22716;DHT22;11525;51.152;4.456;2023-11-21T07:05:45;10.80;99.90
22716;DHT22;11525;51.152;4.456;2023-11-21T07:08:11;10.90;99.90
22716;DHT22;11525;51.152;4.456;2023-11-21T07:10:38;10.90;99.90
22716;DHT22;11525;51.152;4.456;2023-11-21T07:13:04;10.90;99.90
22716;DHT22;11525;51.152;4.456;2023-11-21T07:15:29;10.90;99.90
22716;DHT22;11525;51.152;4.456;2023-11-21T07:17:55;11.00;99.90
22716;DHT22;11525;51.152;4.456;2023-11-21T07:20:21;11.10;99.90
22716;DHT22;11525;51.152;4.456;2023-11-21T07:22:47;11.20;99.90
22716;DHT22;11525;51.152;4.456;2023-11-21T07:25:13;11.20;99.90
22716;DHT22;11525;51.152;4.456;2023-11-21T07:27:39;11.30;99.90
22716;DHT22;11525;51.152;4.456;2023-11-21T07:30:06;11.20;99.90
22716;DHT22;11525;51.152;4.456;2023-11-21T07:32:33;11.20;99.90
22716;DHT22;11525;51.152;4.456;2023-11-21T07:34:59;11.20;99.90
22716;DHT22;11525;51.152;4.456;2023-11-21T07:37:27;11.20;99.90
22716;DHT22;11525;51.152;4.456;2023-11-21T07:39:54;11.20;99.90
22716;DHT22;11525;51.152;4.456;2023-11-21T07:42:23;11.20;99.90
22716;DHT22;11525;51.152;4.456;2023-11-21T07:44:51;11.20;99.90
22716;DHT22;11525;51.152;4.456;2023-11-21T07:47:18;11.20;99.90
22716;DHT22;11525;51.152;4.456;2023-11-21T07:49:43;11.30;99.90
22716;DHT22;11525;51.152;4.456;2023-11-21T07:52:10;11.40;99.90
22716;DHT22;11525;51.152;4.456;2023-11-21T07:54:36;11.40;99.90
22716;DHT22;11525;51.152;4.456;2023-11-21T07:57:02;11.40;99.90
22716;DHT22;11525;51.152;4.456;2023-11-21T07:59:29;11.50;99.90
22716;DHT22;11525;51.152;4.456;2023-11-21T08:01:56;11.50;99.90
22716;DHT22;11525;51.152;4.456;2023-11-21T08:04:21;11.50;99.90
22716;DHT22;11525;51.152;4.456;2023-11-21T08:06:47;11.50;99.90
22716;DHT22;11525;51.152;4.456;2023-11-21T08:09:14;11.60;99.90
22716;DHT22;11525;51.152;4.456;2023-11-21T08:11:41;11.60;99.90
22716;DHT22;11525;51.152;4.456;2023-11-21T08:14:07;11.60;99.90
22716;DHT22;11525;51.152;4.456;2023-11-21T08:16:33;11.60;99.90
22716;DHT22;11525;51.152;4.456;2023-11-21T08:18:59;11.60;99.90
22716;DHT22;11525;51.152;4.456;2023-11-21T08:21:25;11.60;99.90
22716;DHT22;11525;51.152;4.456;2023-11-21T08:23:54;11.60;99.90
22716;DHT22;11525;51.152;4.456;2023-11-21T08:26:21;11.60;99.90
22716;DHT22;11525;51.152;4.456;2023-11-21T08:28:47;11.60;99.90
22716;DHT22;11525;51.152;4.456;2023-11-21T08:31:13;11.60;99.90
22716;DHT22;11525;51.152;4.456;2023-11-21T08:33:39;11.60;99.90
22716;DHT22;11525;51.152;4.456;2023-11-21T08:36:09;11.60;99.90
22716;DHT22;11525;51.152;4.456;2023-11-21T08:38:36;11.70;99.90
22716;DHT22;11525;51.152;4.456;2023-11-21T08:41:07;11.70;99.90
22716;DHT22;11525;51.152;4.456;2023-11-21T08:43:36;11.70;99.90
22716;DHT22;11525;51.152;4.456;2023-11-21T08:46:05;11.90;99.90
22716;DHT22;11525;51.152;4.456;2023-11-21T08:48:31;11.90;99.90
22716;DHT22;11525;51.152;4.456;2023-11-21T08:50:57;12.00;99.90
22716;DHT22;11525;51.152;4.456;2023-11-21T08:53:29;12.00;99.90
22716;DHT22;11525;51.152;4.456;2023-11-21T08:55:56;12.10;99.90
22716;DHT22;11525;51.152;4.456;2023-11-21T08:58:22;12.20;99.90
22716;DHT22;11525;51.152;4.456;2023-11-21T09:00:48;12.20;99.90
22716;DHT22;11525;51.152;4.456;2023-11-21T09:03:14;12.20;99.90
22716;DHT22;11525;51.152;4.456;2023-11-21T09:05:40;12.30;99.90
22716;DHT22;11525;51.152;4.456;2023-11-21T09:08:06;12.30;99.90
22716;DHT22;11525;51.152;4.456;2023-11-21T09:10:35;12.30;99.90
22716;DHT22;11525;51.152;4.456;2023-11-21T09:13:05;12.40;99.90
22716;DHT22;11525;51.152;4.456;2023-11-21T09:15:30;12.40;99.90
22716;DHT22;11525;51.152;4.456;2023-11-21T09:17:56;12.40;99.90
22716;DHT22;11525;51.152;4.456;2023-11-21T09:20:22;12.40;99.90
22716;DHT22;11525;51.152;4.456;2023-11-21T09:22:49;12.40;99.90
22716;DHT22;11525;51.152;4.456;2023-11-21T09:25:15;12.50;99.90
22716;DHT22;11525;51.152;4.456;2023-11-21T09:27:41;12.80;99.90
22716;DHT22;11525;51.152;4.456;2023-11-21T09:30:08;12.90;99.90
22716;DHT22;11525;51.152;4.456;2023-11-21T09:32:35;13.10;99.90
22716;DHT22;11525;51.152;4.456;2023-11-21T09:35:05;13.10;99.90
22716;DHT22;11525;51.152;4.456;2023-11-21T09:37:33;13.30;99.90
22716;DHT22;11525;51.152;4.456;2023-11-21T09:39:59;13.40;99.90
22716;DHT22;11525;51.152;4.456;2023-11-21T09:42:54;13.50;99.90
22716;DHT22;11525;51.152;4.456;2023-11-21T09:45:35;13.40;99.90
22716;DHT22;11525;51.152;4.456;2023-11-21T09:48:01;13.30;99.90
22716;DHT22;11525;51.152;4.456;2023-11-21T09:50:27;13.20;99.90
22716;DHT22;11525;51.152;4.456;2023-11-21T09:55:48;13.20;99.90
22716;DHT22;11525;51.152;4.456;2023-11-21T09:58:16;13.20;99.90
22716;DHT22;11525;51.152;4.456;2023-11-21T10:00:49;13.10;99.90
22716;DHT22;11525;51.152;4.456;2023-11-21T10:03:16;13.20;99.90
22716;DHT22;11525;51.152;4.456;2023-11-21T10:05:43;13.20;99.90
22716;DHT22;11525;51.152;4.456;2023-11-21T10:08:12;13.20;99.90
22716;DHT22;11525;51.152;4.456;2023-11-21T10:10:43;13.30;99.90
22716;DHT22;11525;51.152;4.456;2023-11-21T10:13:18;13.40;99.90
22716;DHT22;11525;51.152;4.456;2023-11-21T10:15:50;13.40;99.90
22716;DHT22;11525;51.152;4.456;2023-11-21T10:18:17;13.30;99.90
22716;DHT22;11525;51.152;4.456;2023-11-21T10:20:43;13.20;99.90
22716;DHT22;11525;51.152;4.456;2023-11-21T10:23:12;13.30;99.90
22716;DHT22;11525;51.152;4.456;2023-11-21T10:25:38;13.50;99.90
22716;DHT22;11525;51.152;4.456;2023-11-21T10:28:05;13.50;99.90
22716;DHT22;11525;51.152;4.456;2023-11-21T10:30:36;13.80;99.90
22716;DHT22;11525;51.152;4.456;2023-11-21T10:33:04;14.20;99.90
22716;DHT22;11525;51.152;4.456;2023-11-21T10:35:41;14.20;99.90
22716;DHT22;11525;51.152;4.456;2023-11-21T10:38:08;14.50;99.90
22716;DHT22;11525;51.152;4.456;2023-11-21T10:40:38;14.30;99.90
22716;DHT22;11525;51.152;4.456;2023-11-21T10:43:08;14.30;99.90
22716;DHT22;11525;51.152;4.456;2023-11-21T10:45:38;14.30;99.90
22716;DHT22;11525;51.152;4.456;2023-11-21T10:48:07;14.40;99.90
22716;DHT22;11525;51.152;4.456;2023-11-21T10:50:36;14.50;99.90
22716;DHT22;11525;51.152;4.456;2023-11-21T10:53:03;14.30;99.90
22716;DHT22;11525;51.152;4.456;2023-11-21T10:55:30;14.10;99.90
22716;DHT22;11525;51.152;4.456;2023-11-21T10:58:00;14.10;99.90
22716;DHT22;11525;51.152;4.456;2023-11-21T11:00:28;14.10;99.90
22716;DHT22;11525;51.152;4.456;2023-11-21T11:02:54;13.90;99.90
22716;DHT22;11525;51.152;4.456;2023-11-21T11:05:23;13.80;99.90
22716;DHT22;11525;51.152;4.456;2023-11-21T11:07:58;13.80;99.90
22716;DHT22;11525;51.152;4.456;2023-11-21T11:10:27;13.80;99.90
22716;DHT22;11525;51.152;4.456;2023-11-21T11:12:55;13.40;99.90
22716;DHT22;11525;51.152;4.456;2023-11-21T11:15:23;13.20;99.90
22716;DHT22;11525;51.152;4.456;2023-11-21T11:17:49;12.90;99.90
22716;DHT22;11525;51.152;4.456;2023-11-21T11:20:16;12.80;99.90
22716;DHT22;11525;51.152;4.456;2023-11-21T11:26:03;12.80;99.90
22716;DHT22;11525;51.152;4.456;2023-11-21T11:28:47;12.80;99.90
22716;DHT22;11525;51.152;4.456;2023-11-21T11:33:53;12.90;99.90
22716;DHT22;11525;51.152;4.456;2023-11-21T11:36:43;13.10;99.90
22716;DHT22;11525;51.152;4.456;2023-11-21T11:39:33;13.10;99.90
22716;DHT22;11525;51.152;4.456;2023-11-21T11:42:02;13.20;99.90
22716;DHT22;11525;51.152;4.456;2023-11-21T11:47:28;13.40;99.90
22716;DHT22;11525;51.152;4.456;2023-11-21T11:50:11;13.30;99.90
22716;DHT22;11525;51.152;4.456;2023-11-21T11:52:46;13.10;99.90
22716;DHT22;11525;51.152;4.456;2023-11-21T11:55:14;13.00;99.90
22716;DHT22;11525;51.152;4.456;2023-11-21T11:57:43;12.90;99.90
22716;DHT22;11525;51.152;4.456;2023-11-21T12:00:16;12.80;99.90
22716;DHT22;11525;51.152;4.456;2023-11-21T12:02:49;12.70;99.90
22716;DHT22;11525;51.152;4.456;2023-11-21T12:05:17;12.70;99.90
22716;DHT22;11525;51.152;4.456;2023-11-21T12:07:50;12.40;99.90
22716;DHT22;11525;51.152;4.456;2023-11-21T12:10:18;12.40;99.90
22716;DHT22;11525;51.152;4.456;2023-11-21T12:15:36;12.50;99.90
22716;DHT22;11525;51.152;4.456;2023-11-21T12:18:03;12.60;99.90
22716;DHT22;11525;51.152;4.456;2023-11-21T12:20:30;12.70;99.90
22716;DHT22;11525;51.152;4.456;2023-11-21T12:23:00;12.90;99.90
22716;DHT22;11525;51.152;4.456;2023-11-21T12:25:30;12.90;99.90
22716;DHT22;11525;51.152;4.456;2023-11-21T12:28:00;13.10;99.90
22716;DHT22;11525;51.152;4.456;2023-11-21T12:30:30;13.20;99.90
22716;DHT22;11525;51.152;4.456;2023-11-21T12:32:59;13.10;99.90
22716;DHT22;11525;51.152;4.456;2023-11-21T12:35:29;12.90;99.90
22716;DHT22;11525;51.152;4.456;2023-11-21T12:37:56;12.70;99.90
22716;DHT22;11525;51.152;4.456;2023-11-21T12:40:25;12.60;99.90
22716;DHT22;11525;51.152;4.456;2023-11-21T12:42:53;12.60;99.90
22716;DHT22;11525;51.152;4.456;2023-11-21T12:45:23;12.60;99.90
22716;DHT22;11525;51.152;4.456;2023-11-21T12:47:59;12.60;99.90
22716;DHT22;11525;51.152;4.456;2023-11-21T12:50:29;12.70;99.90
22716;DHT22;11525;51.152;4.456;2023-11-21T12:53:12;12.70;99.90
22716;DHT22;11525;51.152;4.456;2023-11-21T12:55:39;12.90;99.90
22716;DHT22;11525;51.152;4.456;2023-11-21T12:58:07;12.90;99.90
22716;DHT22;11525;51.152;4.456;2023-11-21T13:03:06;12.50;99.90
22716;DHT22;11525;51.152;4.456;2023-11-21T13:05:34;12.40;99.90
22716;DHT22;11525;51.152;4.456;2023-11-21T13:08:02;12.50;99.90
22716;DHT22;11525;51.152;4.456;2023-11-21T13:10:30;12.40;99.90
22716;DHT22;11525;51.152;4.456;2023-11-21T13:13:00;12.40;99.90
22716;DHT22;11525;51.152;4.456;2023-11-21T13:15:29;12.30;99.90
22716;DHT22;11525;51.152;4.456;2023-11-21T13:17:57;12.20;99.90
22716;DHT22;11525;51.152;4.456;2023-11-21T13:20:24;12.10;99.90
22716;DHT22;11525;51.152;4.456;2023-11-21T13:22:55;12.10;99.90
22716;DHT22;11525;51.152;4.456;2023-11-21T13:25:25;12.00;99.90
22716;DHT22;11525;51.152;4.456;2023-11-21T13:27:54;11.90;99.90
22716;DHT22;11525;51.152;4.456;2023-11-21T13:30:21;11.80;99.90
22716;DHT22;11525;51.152;4.456;2023-11-21T13:32:54;11.70;99.90
22716;DHT22;11525;51.152;4.456;2023-11-21T13:35:23;12.00;99.90
22716;DHT22;11525;51.152;4.456;2023-11-21T13:37:56;12.00;99.90
22716;DHT22;11525;51.152;4.456;2023-11-21T13:40:26;12.10;99.90
22716;DHT22;11525;51.152;4.456;2023-11-21T13:42:52;12.20;99.90
22716;DHT22;11525;51.152;4.456;2023-11-21T13:45:20;12.30;99.90
22716;DHT22;11525;51.152;4.456;2023-11-21T13:47:47;12.30;99.90
22716;DHT22;11525;51.152;4.456;2023-11-21T13:50:13;12.30;99.90
22716;DHT22;11525;51.152;4.456;2023-11-21T13:52:44;12.10;99.90
22716;DHT22;11525;51.152;4.456;2023-11-21T13:55:13;12.00;99.90
22716;DHT22;11525;51.152;4.456;2023-11-21T13:57:44;12.10;99.90
22716;DHT22;11525;51.152;4.456;2023-11-21T14:00:12;12.20;99.90
22716;DHT22;11525;51.152;4.456;2023-11-21T14:02:58;12.20;99.90
22716;DHT22;11525;51.152;4.456;2023-11-21T14:05:31;12.10;99.90
22716;DHT22;11525;51.152;4.456;2023-11-21T14:07:59;12.10;99.90
22716;DHT22;11525;51.152;4.456;2023-11-21T14:10:31;12.20;99.90
22716;DHT22;11525;51.152;4.456;2023-11-21T14:13:09;12.20;99.90
22716;DHT22;11525;51.152;4.456;2023-11-21T14:15:41;12.20;99.90
22716;DHT22;11525;51.152;4.456;2023-11-21T14:18:12;12.00;99.90
22716;DHT22;11525;51.152;4.456;2023-11-21T14:20:43;12.00;99.90
22716;DHT22;11525;51.152;4.456;2023-11-21T14:23:10;12.00;99.90
22716;DHT22;11525;51.152;4.456;2023-11-21T14:25:36;11.90;99.90
22716;DHT22;11525;51.152;4.456;2023-11-21T14:28:03;11.90;99.90
22716;DHT22;11525;51.152;4.456;2023-11-21T14:30:30;11.80;99.90
22716;DHT22;11525;51.152;4.456;2023-11-21T14:32:58;11.70;99.90
22716;DHT22;11525;51.152;4.456;2023-11-21T14:35:25;11.70;99.90
22716;DHT22;11525;51.152;4.456;2023-11-21T14:37:52;11.70;99.90
22716;DHT22;11525;51.152;4.456;2023-11-21T14:40:18;11.80;99.90
22716;DHT22;11525;51.152;4.456;2023-11-21T14:42:50;11.80;99.90
22716;DHT22;11525;51.152;4.456;2023-11-21T14:45:19;11.80;99.90
22716;DHT22;11525;51.152;4.456;2023-11-21T14:47:46;11.60;99.90
22716;DHT22;11525;51.152;4.456;2023-11-21T14:50:21;11.70;99.90
22716;DHT22;11525;51.152;4.456;2023-11-21T14:53:06;11.60;99.90
22716;DHT22;11525;51.152;4.456;2023-11-21T14:55:35;11.60;99.90
22716;DHT22;11525;51.152;4.456;2023-11-21T14:58:17;11.60;99.90
22716;DHT22;11525;51.152;4.456;2023-11-21T15:00:56;11.70;99.90
22716;DHT22;11525;51.152;4.456;2023-11-21T15:03:27;11.60;99.90
22716;DHT22;11525;51.152;4.456;2023-11-21T15:05:59;11.40;99.90
22716;DHT22;11525;51.152;4.456;2023-11-21T15:08:37;11.30;99.90
22716;DHT22;11525;51.152;4.456;2023-11-21T15:11:03;11.40;99.90
22716;DHT22;11525;51.152;4.456;2023-11-21T15:13:33;11.50;99.90
22716;DHT22;11525;51.152;4.456;2023-11-21T15:15:59;11.40;99.90
22716;DHT22;11525;51.152;4.456;2023-11-21T15:18:33;11.40;99.90
22716;DHT22;11525;51.152;4.456;2023-11-21T15:21:01;11.40;99.90
22716;DHT22;11525;51.152;4.456;2023-11-21T15:23:29;11.40;99.90
22716;DHT22;11525;51.152;4.456;2023-11-21T15:25:56;11.40;99.90
22716;DHT22;11525;51.152;4.456;2023-11-21T15:28:23;11.30;99.90
22716;DHT22;11525;51.152;4.456;2023-11-21T15:30:50;11.30;99.90
22716;DHT22;11525;51.152;4.456;2023-11-21T15:33:17;11.20;99.90
22716;DHT22;11525;51.152;4.456;2023-11-21T15:35:43;11.10;99.90
22716;DHT22;11525;51.152;4.456;2023-11-21T15:38:09;11.10;99.90
22716;DHT22;11525;51.152;4.456;2023-11-21T15:40:35;11.00;99.90
22716;DHT22;11525;51.152;4.456;2023-11-21T15:43:01;11.10;99.90
22716;DHT22;11525;51.152;4.456;2023-11-21T15:45:29;10.90;99.90
22716;DHT22;11525;51.152;4.456;2023-11-21T15:47:55;10.90;99.90
22716;DHT22;11525;51.152;4.456;2023-11-21T15:50:22;10.80;99.90
22716;DHT22;11525;51.152;4.456;2023-11-21T15:52:48;10.90;99.90